Time;durP1;ratioP1;P1;durP2;ratioP2;P2;SDS_P1;SDS_P2;PMS_P1;PMS_P2;Temp;Humidity;BMP_temperature;BMP_pressure;BME280_temperature;BME280_humidity;BME280_pressure;Samples;Min_cycle;Max_cycle;Signal;HPM_P1;HPM_P2
2023/07/10 00:00:10;;;;;;;8.77;3.83;;;;;;;21.40;100.00;96133.69;1031081;28;20106;-73
2023/07/10 00:00:41;;;;;;;6.32;3.90;;;;;;;21.38;100.00;96132.44;1030920;28;20029;-74
2023/07/10 00:01:14;;;;;;;7.47;3.35;;;;;;;21.35;100.00;96131.19;1032508;28;20049;-74
2023/07/10 00:01:47;;;;;;;8.57;4.05;;;;;;;21.34;100.00;96134.97;1040088;28;20056;-74
2023/07/10 00:02:18;;;;;;;5.10;3.83;;;;;;;21.33;100.00;96132.59;1037956;28;20025;-73
2023/07/10 00:02:49;;;;;;;5.90;3.88;;;;;;;21.30;100.00;96122.56;1033597;28;20022;-73
2023/07/10 00:03:19;;;;;;;8.85;3.83;;;;;;;21.32;100.00;96131.78;1035968;28;20026;-73
2023/07/10 00:03:50;;;;;;;5.93;3.80;;;;;;;21.32;100.00;96131.00;1047167;28;20028;-73
2023/07/10 00:04:20;;;;;;;8.95;3.90;;;;;;;21.33;100.00;96128.03;1047464;28;20112;-71
2023/07/10 00:04:51;;;;;;;4.68;3.38;;;;;;;21.36;100.00;96126.63;1045107;28;20036;-73
2023/07/10 00:05:21;;;;;;;7.60;3.78;;;;;;;21.37;100.00;96129.00;1035043;28;20022;-73
2023/07/10 00:05:51;;;;;;;8.95;4.10;;;;;;;21.39;100.00;96129.47;1030880;28;20031;-73
2023/07/10 00:06:22;;;;;;;8.18;4.22;;;;;;;21.38;100.00;96130.53;1030825;28;20018;-73
2023/07/10 00:06:53;;;;;;;6.45;3.70;;;;;;;21.38;100.00;96119.09;1035038;28;20030;-74
2023/07/10 00:07:23;;;;;;;9.70;3.65;;;;;;;21.44;100.00;96127.69;1038743;28;20021;-73
2023/07/10 00:07:54;;;;;;;12.85;4.40;;;;;;;21.45;100.00;96124.69;1038737;28;20028;-73
2023/07/10 00:08:24;;;;;;;5.50;3.50;;;;;;;21.45;100.00;96126.59;1039119;28;20029;-73
2023/07/10 00:08:55;;;;;;;8.27;4.18;;;;;;;21.46;100.00;96125.47;1031065;28;20547;-73
2023/07/10 00:09:27;;;;;;;8.20;3.83;;;;;;;21.44;100.00;96127.69;1035814;28;20026;-74
2023/07/10 00:09:58;;;;;;;5.90;3.78;;;;;;;21.42;100.00;96126.13;1042996;28;20039;-73
2023/07/10 00:10:28;;;;;;;7.10;3.60;;;;;;;21.41;100.00;96129.91;1043892;28;20025;-73
2023/07/10 00:10:59;;;;;;;7.63;4.15;;;;;;;21.40;100.00;96122.22;1042557;28;20025;-70
2023/07/10 00:11:30;;;;;;;6.50;3.80;;;;;;;21.36;100.00;96115.94;1038402;28;20017;-71
2023/07/10 00:12:01;;;;;;;8.57;3.85;;;;;;;21.42;100.00;96120.78;1034983;28;20108;-72
2023/07/10 00:12:31;;;;;;;7.53;3.42;;;;;;;21.42;100.00;96126.13;1034872;28;20010;-72
2023/07/10 00:13:02;;;;;;;10.68;4.75;;;;;;;21.42;100.00;96136.78;1026657;28;20015;-72
2023/07/10 00:13:32;;;;;;;6.45;3.70;;;;;;;21.44;100.00;96133.81;1035027;28;20018;-71
2023/07/10 00:14:05;;;;;;;6.40;3.60;;;;;;;21.44;100.00;96127.69;1035078;28;20026;-72
2023/07/10 00:14:35;;;;;;;8.32;3.92;;;;;;;21.44;100.00;96133.03;1040017;28;20018;-72
2023/07/10 00:15:18;;;;;;;8.57;4.00;;;;;;;21.42;100.00;96131.47;1046794;28;20023;-72
2023/07/10 00:15:49;;;;;;;7.15;3.67;;;;;;;21.39;100.00;96129.47;1039102;28;20025;-72
2023/07/10 00:16:20;;;;;;;7.47;3.67;;;;;;;21.39;100.00;96121.44;1036501;28;20137;-72
2023/07/10 00:16:51;;;;;;;5.90;3.58;;;;;;;21.36;100.00;96129.28;1039015;28;20021;-72
2023/07/10 00:17:22;;;;;;;6.28;3.40;;;;;;;21.31;100.00;96126.78;1039434;28;20046;-72
2023/07/10 00:17:52;;;;;;;6.53;3.65;;;;;;;21.28;100.00;96130.88;1039032;28;20534;-72
2023/07/10 00:18:23;;;;;;;7.32;4.00;;;;;;;21.25;100.00;96128.06;1037911;28;20022;-72
2023/07/10 00:18:53;;;;;;;7.20;3.80;;;;;;;21.23;100.00;96132.94;1038743;28;20022;-72
2023/07/10 00:19:24;;;;;;;7.38;4.10;;;;;;;21.19;100.00;96127.47;1037510;28;20028;-72
2023/07/10 00:19:59;;;;;;;5.20;3.28;;;;;;;21.16;100.00;96123.56;1043000;28;20100;-72
2023/07/10 00:20:35;;;;;;;10.73;3.92;;;;;;;21.22;100.00;96126.81;1040979;28;20109;-72
2023/07/10 00:21:05;;;;;;;6.88;3.65;;;;;;;21.18;100.00;96126.69;1042585;28;20021;-71
2023/07/10 00:21:35;;;;;;;8.77;3.55;;;;;;;21.15;100.00;96131.88;1040165;28;20018;-72
2023/07/10 00:22:06;;;;;;;7.10;3.60;;;;;;;21.14;100.00;96124.97;1044543;28;20750;-72
2023/07/10 00:22:36;;;;;;;9.02;4.20;;;;;;;21.10;100.00;96126.72;1047342;28;20029;-72
2023/07/10 00:23:07;;;;;;;6.63;3.83;;;;;;;21.07;100.00;96125.47;1043219;28;20017;-72
2023/07/10 00:23:37;;;;;;;7.93;3.80;;;;;;;21.06;100.00;96123.94;1038817;28;20101;-71
2023/07/10 00:24:08;;;;;;;5.75;3.38;;;;;;;21.06;100.00;96128.44;1035012;28;20125;-71
2023/07/10 00:24:38;;;;;;;8.45;4.05;;;;;;;21.05;100.00;96129.56;1030888;28;20018;-73
2023/07/10 00:25:09;;;;;;;7.63;3.80;;;;;;;21.05;100.00;96130.34;1034922;28;20014;-73
2023/07/10 00:25:40;;;;;;;7.88;3.70;;;;;;;21.01;100.00;96125.97;1042245;28;20039;-71
2023/07/10 00:26:16;;;;;;;5.93;3.50;;;;;;;21.01;100.00;96125.97;1043301;28;20013;-71
2023/07/10 00:26:47;;;;;;;7.88;3.42;;;;;;;21.01;100.00;96120.63;1038990;28;20017;-72
2023/07/10 00:27:17;;;;;;;5.03;3.88;;;;;;;21.00;100.00;96133.19;1034745;28;20029;-71
2023/07/10 00:27:48;;;;;;;9.80;3.83;;;;;;;20.98;100.00;96129.28;1035783;28;20025;-72
2023/07/10 00:28:20;;;;;;;5.20;3.58;;;;;;;20.94;100.00;96126.47;1039211;28;20918;-71
2023/07/10 00:28:52;;;;;;;9.00;3.45;;;;;;;20.94;100.00;96127.25;1035116;28;20025;-73
2023/07/10 00:29:28;;;;;;;8.93;3.53;;;;;;;20.92;100.00;96126.81;1034890;28;20046;-73
2023/07/10 00:29:58;;;;;;;8.00;3.88;;;;;;;20.93;100.00;96130.25;1034913;28;20030;-73
2023/07/10 00:30:31;;;;;;;5.32;3.60;;;;;;;20.97;100.00;96135.72;1037023;28;20022;-73
2023/07/10 00:31:02;;;;;;;7.45;3.28;;;;;;;20.92;100.00;96124.13;1042805;28;20820;-74
2023/07/10 00:31:32;;;;;;;8.20;3.20;;;;;;;20.99;100.00;96131.63;1038811;28;20039;-73
2023/07/10 00:32:12;;;;;;;5.50;3.42;;;;;;;20.98;100.00;96129.28;1035302;28;20029;-73
2023/07/10 00:32:44;;;;;;;7.22;3.38;;;;;;;20.96;100.00;96134.94;1038975;28;20029;-71
2023/07/10 00:33:15;;;;;;;7.18;3.60;;;;;;;20.94;100.00;96123.81;1038993;28;20035;-73
2023/07/10 00:33:47;;;;;;;7.60;3.50;;;;;;;20.94;100.00;96132.59;1032291;28;20052;-70
2023/07/10 00:34:25;;;;;;;9.25;4.28;;;;;;;20.95;100.00;96134.13;1034784;28;20022;-73
2023/07/10 00:34:55;;;;;;;8.23;3.63;;;;;;;20.96;100.00;96134.94;1030780;28;20068;-73
2023/07/10 00:35:26;;;;;;;7.03;3.70;;;;;;;20.95;100.00;96128.81;1033734;28;20520;-73
2023/07/10 00:35:56;;;;;;;9.30;3.78;;;;;;;20.93;100.00;96128.34;1035891;28;20105;-71
2023/07/10 00:36:30;;;;;;;8.60;3.80;;;;;;;20.93;100.00;96131.03;1035308;28;20399;-73
2023/07/10 00:37:01;;;;;;;8.68;3.70;;;;;;;20.91;100.00;96127.88;1030794;28;20022;-73
2023/07/10 00:37:32;;;;;;;5.25;3.88;;;;;;;20.89;100.00;96127.44;1028412;28;20026;-72
2023/07/10 00:38:17;;;;;;;10.23;4.40;;;;;;;20.88;100.00;96125.06;1032100;28;20022;-74
2023/07/10 00:38:47;;;;;;;7.15;4.63;;;;;;;20.83;100.00;96130.59;1035046;28;20426;-73
2023/07/10 00:39:25;;;;;;;8.25;3.95;;;;;;;20.75;100.00;96118.81;1038878;28;20017;-74
2023/07/10 00:39:56;;;;;;;6.40;3.58;;;;;;;20.76;100.00;96128.41;1033921;28;20026;-72
2023/07/10 00:40:33;;;;;;;6.70;3.72;;;;;;;20.69;100.00;96128.09;1038467;28;20022;-71
2023/07/10 00:41:04;;;;;;;7.65;3.67;;;;;;;20.73;100.00;96126.38;1038464;28;20850;-73
2023/07/10 00:41:34;;;;;;;7.65;4.10;;;;;;;20.72;100.00;96127.47;1031660;28;20115;-73
2023/07/10 00:42:27;;;;;;;7.40;3.70;;;;;;;20.75;100.00;96129.50;1034829;28;20022;-71
2023/07/10 00:43:02;;;;;;;7.15;4.03;;;;;;;20.66;100.00;96116.19;1038916;28;20037;-74
2023/07/10 00:43:37;;;;;;;7.35;4.20;;;;;;;20.70;100.00;96127.00;1035276;28;20076;-73
2023/07/10 00:44:10;;;;;;;6.53;3.85;;;;;;;20.64;100.00;96117.63;1034725;28;20631;-73
2023/07/10 00:44:58;;;;;;;8.48;4.13;;;;;;;20.66;100.00;96123.44;1030783;28;20018;-72
2023/07/10 00:45:28;;;;;;;9.52;4.10;;;;;;;20.66;100.00;96126.88;1034846;28;20028;-73
2023/07/10 00:46:04;;;;;;;6.18;4.13;;;;;;;20.66;100.00;96136.75;1033339;28;20030;-73
2023/07/10 00:47:02;;;;;;;6.28;3.83;;;;;;;20.66;100.00;96124.19;1038878;28;20025;-73
2023/07/10 00:47:35;;;;;;;8.55;3.90;;;;;;;20.59;100.00;96123.91;1040503;28;20047;-73
2023/07/10 00:48:16;;;;;;;6.90;3.78;;;;;;;20.63;100.00;96132.06;1043123;28;20411;-73
2023/07/10 00:48:56;;;;;;;6.25;3.53;;;;;;;20.62;100.00;96123.28;1038862;28;20018;-72
2023/07/10 00:49:34;;;;;;;10.40;4.30;;;;;;;20.61;100.00;96128.91;1033744;28;20009;-73
2023/07/10 00:50:18;;;;;;;8.02;3.90;;;;;;;20.57;100.00;96122.66;1034936;28;20061;-73
2023/07/10 00:50:51;;;;;;;8.43;3.50;;;;;;;20.48;100.00;96115.41;1034626;28;20518;-73
2023/07/10 00:51:27;;;;;;;7.82;3.65;;;;;;;20.54;100.00;96132.06;1041438;28;20040;-73
2023/07/10 00:52:02;;;;;;;5.20;3.83;;;;;;;20.54;100.00;96129.41;1038826;28;20021;-73
2023/07/10 00:52:38;;;;;;;7.03;3.58;;;;;;;20.53;100.00;96127.06;1033260;28;20104;-73
2023/07/10 00:53:14;;;;;;;7.95;4.07;;;;;;;20.49;100.00;96133.00;1030910;28;20030;-73
2023/07/10 00:53:44;;;;;;;5.40;3.63;;;;;;;20.48;100.00;96125.28;1038985;28;20116;-73
2023/07/10 00:54:24;;;;;;;12.25;3.95;;;;;;;20.46;100.00;96130.97;1038820;28;20029;-73
2023/07/10 00:54:57;;;;;;;10.07;4.15;;;;;;;20.45;100.00;96126.69;1034844;28;20106;-73
2023/07/10 00:55:32;;;;;;;6.35;4.43;;;;;;;20.45;100.00;96126.69;1028344;28;20559;-73
2023/07/10 00:56:03;;;;;;;6.18;3.85;;;;;;;20.39;100.00;96119.22;1034598;28;20052;-74
2023/07/10 00:56:39;;;;;;;11.05;4.47;;;;;;;20.42;100.00;96126.56;1038911;28;20064;-74
2023/07/10 00:57:14;;;;;;;8.68;4.30;;;;;;;20.41;100.00;96125.78;1038893;28;20029;-73
2023/07/10 00:57:45;;;;;;;7.18;3.88;;;;;;;20.42;100.00;96130.03;1034683;28;20026;-73
2023/07/10 00:58:18;;;;;;;6.15;3.65;;;;;;;20.42;100.00;96127.34;1034942;28;20030;-73
2023/07/10 00:58:49;;;;;;;10.57;4.22;;;;;;;20.38;100.00;96125.63;1035964;28;20830;-74
2023/07/10 00:59:24;;;;;;;6.50;3.58;;;;;;;20.40;100.00;96126.88;1035746;28;20068;-73
2023/07/10 00:59:55;;;;;;;8.57;3.90;;;;;;;20.39;100.00;96122.66;1044240;28;20041;-73
2023/07/10 01:00:28;;;;;;;8.48;5.13;;;;;;;20.39;100.00;96128.00;1038977;28;20066;-73
2023/07/10 01:01:13;;;;;;;9.48;4.05;;;;;;;20.38;100.00;96126.41;1034216;28;20116;-73
2023/07/10 01:02:19;;;;;;;6.55;4.40;;;;;;;20.39;100.00;96128.00;1032579;28;20136;-73
2023/07/10 01:02:50;;;;;;;8.43;4.07;;;;;;;20.40;100.00;96126.88;1027565;28;20054;-74
2023/07/10 01:03:21;;;;;;;6.75;4.00;;;;;;;20.36;100.00;96122.50;1026389;28;20421;-74
2023/07/10 01:03:52;;;;;;;9.55;4.40;;;;;;;20.18;100.00;96095.06;1026507;28;20138;-74
2023/07/10 01:04:22;;;;;;;7.10;3.92;;;;;;;20.34;100.00;96125.47;1022436;29;20031;-71
2023/07/10 01:04:57;;;;;;;9.15;4.55;;;;;;;20.34;100.00;96117.47;1022500;28;20520;-73
2023/07/10 01:05:28;;;;;;;5.70;4.10;;;;;;;20.33;100.00;96117.81;1028906;28;20023;-73
2023/07/10 01:06:00;;;;;;;8.70;4.50;;;;;;;20.31;100.00;96123.44;1035418;28;20033;-73
2023/07/10 01:06:31;;;;;;;6.85;3.95;;;;;;;20.28;100.00;96116.06;1034631;28;20026;-74
2023/07/10 01:07:02;;;;;;;7.80;3.85;;;;;;;20.28;100.00;96120.63;1034789;28;20491;-73
2023/07/10 01:07:36;;;;;;;10.02;4.53;;;;;;;20.30;100.00;96129.88;1030768;28;20035;-72
2023/07/10 01:08:07;;;;;;;7.45;4.30;;;;;;;20.27;100.00;96125.16;1026644;28;20027;-73
2023/07/10 01:08:37;;;;;;;9.55;4.32;;;;;;;20.27;100.00;96125.16;1030767;28;20038;-74
2023/07/10 01:09:08;;;;;;;11.57;4.28;;;;;;;20.24;100.00;96125.78;1030718;28;20022;-73
2023/07/10 01:09:39;;;;;;;8.25;4.43;;;;;;;20.27;100.00;96129.72;1030405;28;20034;-73
2023/07/10 01:10:10;;;;;;;8.02;4.05;;;;;;;20.25;100.00;96127.34;1030821;28;20128;-72
2023/07/10 01:10:40;;;;;;;6.47;3.90;;;;;;;20.25;100.00;96127.34;1026847;28;20070;-73
2023/07/10 01:11:11;;;;;;;8.30;4.55;;;;;;;20.28;100.00;96125.94;1030203;28;20031;-73
2023/07/10 01:11:41;;;;;;;7.13;4.80;;;;;;;20.28;100.00;96126.72;1038734;28;20029;-73
2023/07/10 01:12:12;;;;;;;8.48;4.75;;;;;;;20.27;100.00;96122.50;1043182;28;20079;-73
2023/07/10 01:12:43;;;;;;;8.80;4.35;;;;;;;20.30;100.00;96123.75;1042975;28;20127;-73
2023/07/10 01:13:13;;;;;;;6.07;3.80;;;;;;;20.33;100.00;96123.91;1038691;28;20017;-73
2023/07/10 01:13:44;;;;;;;11.30;4.28;;;;;;;20.33;100.00;96123.91;1034802;28;20041;-72
2023/07/10 01:14:15;;;;;;;8.38;4.03;;;;;;;20.31;100.00;96115.44;1034964;28;20068;-72
2023/07/10 01:14:45;;;;;;;8.45;4.15;;;;;;;20.37;100.00;96124.84;1030693;28;20018;-73
2023/07/10 01:15:16;;;;;;;5.32;3.88;;;;;;;20.40;100.00;96124.22;1027064;28;20496;-73
2023/07/10 01:15:46;;;;;;;6.95;4.28;;;;;;;20.35;100.00;96116.38;1030654;28;20073;-73
2023/07/10 01:16:18;;;;;;;8.32;3.75;;;;;;;20.41;100.00;96120.44;1035012;28;20018;-72
2023/07/10 01:16:48;;;;;;;6.97;4.00;;;;;;;20.41;100.00;96125.78;1042847;28;20075;-73
2023/07/10 01:17:19;;;;;;;5.97;3.70;;;;;;;20.42;100.00;96116.69;1043116;28;20146;-72
2023/07/10 01:17:49;;;;;;;8.27;4.18;;;;;;;20.42;100.00;96122.03;1038899;28;20032;-73
2023/07/10 01:18:20;;;;;;;6.88;4.40;;;;;;;20.43;100.00;96118.25;1030687;28;20029;-74
2023/07/10 01:18:50;;;;;;;5.55;3.53;;;;;;;20.42;100.00;96116.69;1037949;28;20402;-72
2023/07/10 01:19:22;;;;;;;6.00;3.97;;;;;;;20.43;100.00;96115.59;1041493;28;20098;-73
2023/07/10 01:19:54;;;;;;;6.53;3.75;;;;;;;20.44;100.00;96111.81;1034877;28;20026;-73
2023/07/10 01:20:33;;;;;;;9.10;4.05;;;;;;;20.37;100.00;96103.53;1036639;28;20029;-73
2023/07/10 01:21:23;;;;;;;7.57;4.30;;;;;;;20.40;100.00;96105.56;1038218;28;20064;-72
2023/07/10 01:21:54;;;;;;;6.40;3.88;;;;;;;20.36;100.00;96104.63;1034911;28;20040;-72
2023/07/10 01:22:24;;;;;;;8.18;3.83;;;;;;;20.40;100.00;96110.88;1035016;28;20415;-72
2023/07/10 01:22:55;;;;;;;8.57;3.42;;;;;;;20.40;100.00;96107.44;1030733;28;20073;-72
2023/07/10 01:23:25;;;;;;;9.80;4.30;;;;;;;20.38;100.00;96110.41;1034861;28;20026;-73
2023/07/10 01:23:56;;;;;;;6.45;4.18;;;;;;;20.38;100.00;96107.75;1034521;28;20487;-73
2023/07/10 01:24:27;;;;;;;6.72;3.92;;;;;;;20.40;100.00;96113.56;1030622;28;20030;-72
2023/07/10 01:24:58;;;;;;;12.80;3.97;;;;;;;20.38;100.00;96104.28;1030629;28;20034;-72
2023/07/10 01:25:32;;;;;;;8.63;3.72;;;;;;;20.36;100.00;96101.19;1030657;28;20034;-72
2023/07/10 01:26:05;;;;;;;6.57;3.85;;;;;;;20.40;100.00;96108.22;1027865;28;20022;-72
2023/07/10 01:26:37;;;;;;;5.80;3.60;;;;;;;20.39;100.00;96105.88;1031553;28;20026;-72
2023/07/10 01:27:11;;;;;;;11.80;4.38;;;;;;;20.38;100.00;96105.06;1033357;28;20553;-72
2023/07/10 01:27:42;;;;;;;7.05;4.13;;;;;;;20.37;100.00;96100.06;1034810;28;20505;-72
2023/07/10 01:28:14;;;;;;;6.43;3.78;;;;;;;20.23;100.00;96079.72;1035472;28;20030;-72
2023/07/10 01:28:45;;;;;;;6.43;3.60;;;;;;;20.36;100.00;96107.28;1035749;28;20028;-72
2023/07/10 01:29:32;;;;;;;9.48;3.38;;;;;;;20.37;100.00;96108.06;1030478;28;20843;-72
2023/07/10 01:30:06;;;;;;;5.95;3.80;;;;;;;20.39;100.00;96104.00;1030301;28;20034;-72
2023/07/10 01:30:38;;;;;;;6.43;3.83;;;;;;;20.37;100.00;96098.19;1036190;28;20021;-72
2023/07/10 01:31:10;;;;;;;7.53;3.70;;;;;;;20.40;100.00;96105.56;1034072;28;20113;-72
2023/07/10 01:31:41;;;;;;;6.90;4.20;;;;;;;20.41;100.00;96112.44;1034675;28;20025;-73
2023/07/10 01:32:13;;;;;;;5.97;3.83;;;;;;;20.42;100.00;96106.03;1034561;28;20021;-73
2023/07/10 01:32:43;;;;;;;4.82;3.50;;;;;;;20.39;100.00;96098.66;1035769;28;20526;-72
2023/07/10 01:33:25;;;;;;;8.52;4.10;;;;;;;20.41;100.00;96109.00;1035091;28;20030;-73
2023/07/10 01:33:57;;;;;;;7.13;3.92;;;;;;;20.38;100.00;96110.41;1038721;28;20029;-73
2023/07/10 01:34:52;;;;;;;5.72;3.83;;;;;;;20.39;100.00;96111.22;1034709;28;20028;-73
2023/07/10 01:35:23;;;;;;;5.72;3.80;;;;;;;20.37;100.00;96111.50;1038745;28;20118;-71
2023/07/10 01:35:55;;;;;;;6.28;3.65;;;;;;;20.36;100.00;96107.28;1034948;28;20465;-72
2023/07/10 01:36:29;;;;;;;10.43;4.10;;;;;;;20.35;100.00;96105.72;1038198;28;20017;-72
2023/07/10 01:37:00;;;;;;;6.70;3.78;;;;;;;20.33;100.00;96107.91;1035582;28;20021;-72
2023/07/10 01:37:30;;;;;;;8.88;4.00;;;;;;;20.32;100.00;96108.22;1038655;28;20039;-72
2023/07/10 01:38:01;;;;;;;11.13;4.75;;;;;;;20.30;100.00;96105.09;1039470;28;20827;-72
2023/07/10 01:38:38;;;;;;;5.80;3.65;;;;;;;20.28;100.00;96110.72;1039714;28;20228;-72
2023/07/10 01:39:09;;;;;;;8.80;3.63;;;;;;;20.29;100.00;96111.50;1041570;28;20029;-72
2023/07/10 01:39:41;;;;;;;4.70;3.55;;;;;;;20.22;100.00;96102.13;1046913;28;20109;-72
2023/07/10 01:40:14;;;;;;;5.95;3.97;;;;;;;20.27;100.00;96111.84;1044037;28;20045;-73
2023/07/10 01:40:49;;;;;;;7.40;4.05;;;;;;;20.27;100.00;96109.19;1034439;28;20098;-73
2023/07/10 01:41:26;;;;;;;7.63;3.80;;;;;;;20.28;100.00;96108.06;1029852;28;20808;-73
2023/07/10 01:41:56;;;;;;;7.90;3.97;;;;;;;20.28;100.00;96116.06;1029572;28;20448;-72
2023/07/10 01:42:27;;;;;;;5.93;3.75;;;;;;;20.25;100.00;96112.16;1033684;28;20042;-72
2023/07/10 01:42:58;;;;;;;5.72;3.65;;;;;;;20.18;100.00;96105.72;1040616;28;20036;-72
2023/07/10 01:43:29;;;;;;;5.57;3.92;;;;;;;20.21;100.00;96107.75;1041256;28;20032;-72
2023/07/10 01:43:59;;;;;;;4.80;3.67;;;;;;;20.16;100.00;96102.63;1047179;28;20036;-72
2023/07/10 01:44:37;;;;;;;6.60;4.05;;;;;;;20.16;100.00;96113.28;1046977;28;20028;-73
2023/07/10 01:45:12;;;;;;;8.27;3.67;;;;;;;20.18;100.00;96113.72;1042518;28;20563;-73
2023/07/10 01:45:43;;;;;;;4.78;3.30;;;;;;;20.18;100.00;96113.72;1043116;28;20026;-73
2023/07/10 01:46:18;;;;;;;6.35;3.53;;;;;;;20.22;100.00;96122.66;1038736;28;20676;-73
2023/07/10 01:46:49;;;;;;;6.78;3.78;;;;;;;20.16;100.00;96108.72;1037185;28;20048;-72
2023/07/10 01:47:20;;;;;;;5.53;3.42;;;;;;;20.21;100.00;96121.09;1034561;28;20048;-72
2023/07/10 01:47:52;;;;;;;12.02;3.63;;;;;;;20.21;100.00;96121.09;1039041;28;20029;-73
2023/07/10 01:48:24;;;;;;;6.28;3.50;;;;;;;20.18;100.00;96116.38;1042598;28;20418;-72
2023/07/10 01:48:56;;;;;;;5.28;3.67;;;;;;;20.17;100.00;96122.81;1031090;28;20034;-73
2023/07/10 01:49:28;;;;;;;6.15;3.65;;;;;;;20.16;100.00;96123.94;1030977;28;20037;-72
2023/07/10 01:49:59;;;;;;;5.35;3.47;;;;;;;20.12;100.00;96120.31;1038754;28;20040;-73
2023/07/10 01:50:29;;;;;;;6.78;3.85;;;;;;;20.13;100.00;96119.22;1035127;28;20033;-73
2023/07/10 01:51:00;;;;;;;10.45;3.72;;;;;;;20.12;100.00;96128.28;1036871;28;20034;-71
2023/07/10 01:51:30;;;;;;;9.30;4.35;;;;;;;20.10;100.00;96127.84;1042464;28;20033;-73
2023/07/10 01:52:02;;;;;;;7.18;4.10;;;;;;;20.05;100.00;96122.66;1040665;28;20036;-72
2023/07/10 01:52:32;;;;;;;6.78;3.53;;;;;;;20.04;100.00;96121.09;1035200;28;20036;-73
2023/07/10 01:53:03;;;;;;;7.75;3.85;;;;;;;20.06;100.00;96129.56;1034586;28;20534;-73
2023/07/10 01:53:33;;;;;;;6.43;3.47;;;;;;;20.06;100.00;96134.91;1033861;28;20025;-72
2023/07/10 01:54:04;;;;;;;6.50;4.10;;;;;;;19.99;100.00;96120.16;1031019;28;20031;-72
2023/07/10 01:54:34;;;;;;;7.55;3.65;;;;;;;20.01;100.00;96127.84;1041416;28;20718;-73
2023/07/10 01:55:05;;;;;;;4.80;3.67;;;;;;;20.00;100.00;96134.25;1038771;28;20056;-73
2023/07/10 01:55:44;;;;;;;6.97;3.60;;;;;;;19.93;100.00;96121.41;1039827;28;20052;-73
2023/07/10 01:56:16;;;;;;;8.02;3.80;;;;;;;19.95;100.00;96140.53;1034838;28;20600;-72
2023/07/10 01:56:46;;;;;;;5.47;3.53;;;;;;;19.89;100.00;96123.13;1038575;28;20112;-73
2023/07/10 01:57:18;;;;;;;6.80;3.70;;;;;;;19.89;100.00;96125.03;1038522;28;20671;-73
2023/07/10 01:57:48;;;;;;;5.97;3.60;;;;;;;19.93;100.00;96142.72;1038550;28;20029;-72
2023/07/10 01:58:18;;;;;;;4.65;3.47;;;;;;;19.90;100.00;96142.56;1042974;28;20815;-73
2023/07/10 01:58:49;;;;;;;8.20;3.70;;;;;;;19.90;100.00;96138.00;1041829;28;20032;-73
2023/07/10 01:59:19;;;;;;;5.45;3.38;;;;;;;19.88;100.00;96145.53;1038647;28;20040;-72
2023/07/10 01:59:51;;;;;;;5.88;3.70;;;;;;;19.87;100.00;96146.63;1034604;28;20034;-72
2023/07/10 02:00:21;;;;;;;6.20;3.60;;;;;;;19.88;100.00;96142.09;1034783;28;20032;-73
2023/07/10 02:00:51;;;;;;;6.30;3.92;;;;;;;19.85;100.00;96143.50;1038700;28;20677;-73
2023/07/10 02:01:22;;;;;;;7.80;3.67;;;;;;;19.85;100.00;96146.19;1045684;28;20028;-72
2023/07/10 02:01:53;;;;;;;6.50;3.70;;;;;;;19.87;100.00;96154.63;1055656;28;20055;-73
2023/07/10 02:02:24;;;;;;;6.13;4.00;;;;;;;19.85;100.00;96145.38;1044233;28;20024;-72
2023/07/10 02:02:54;;;;;;;5.20;3.33;;;;;;;19.87;100.00;96146.63;1044654;28;20506;-74
2023/07/10 02:03:25;;;;;;;7.78;3.80;;;;;;;19.87;100.00;96149.28;1046692;28;20526;-73
2023/07/10 02:03:56;;;;;;;5.88;3.72;;;;;;;19.87;100.00;96146.63;1041728;28;20481;-73
2023/07/10 02:04:26;;;;;;;5.55;3.63;;;;;;;19.85;100.00;96148.84;1047374;28;20036;-73
2023/07/10 02:04:57;;;;;;;13.27;3.85;;;;;;;19.85;100.00;96140.03;1040200;28;20483;-72
2023/07/10 02:05:27;;;;;;;6.35;4.10;;;;;;;19.87;100.00;96143.97;1034468;28;20026;-73
2023/07/10 02:05:58;;;;;;;5.18;3.63;;;;;;;19.85;100.00;96143.50;1034347;28;20045;-73
2023/07/10 02:06:30;;;;;;;7.22;3.65;;;;;;;19.83;100.00;96150.25;1037901;28;20032;-72
2023/07/10 02:07:00;;;;;;;5.85;3.50;;;;;;;19.83;100.00;96151.00;1042868;28;20498;-72
2023/07/10 02:07:31;;;;;;;5.80;3.70;;;;;;;19.82;100.00;96156.63;1039960;28;20029;-73
2023/07/10 02:08:02;;;;;;;5.40;3.40;;;;;;;19.81;100.00;96149.75;1042732;28;20152;-73
2023/07/10 02:08:32;;;;;;;7.22;3.80;;;;;;;19.80;100.00;96148.19;1046794;28;20027;-72
2023/07/10 02:09:03;;;;;;;6.60;3.63;;;;;;;19.79;100.00;96150.06;1033339;28;20033;-73
2023/07/10 02:09:34;;;;;;;6.65;3.45;;;;;;;19.81;100.00;96161.19;1035993;28;20069;-73
2023/07/10 02:10:04;;;;;;;5.90;3.58;;;;;;;19.80;100.00;96154.31;1042701;28;20195;-73
2023/07/10 02:10:35;;;;;;;5.88;3.53;;;;;;;19.80;100.00;96159.63;1038761;28;20163;-73
2023/07/10 02:11:05;;;;;;;7.45;3.40;;;;;;;19.79;100.00;96163.41;1033680;28;20022;-72
2023/07/10 02:11:37;;;;;;;7.53;3.70;;;;;;;19.80;100.00;96156.97;1041428;28;20020;-72
2023/07/10 02:12:08;;;;;;;5.05;3.78;;;;;;;19.78;100.00;96161.81;1038926;28;20442;-73
2023/07/10 02:12:38;;;;;;;8.23;3.65;;;;;;;19.78;100.00;96161.81;1036042;28;20083;-73
2023/07/10 02:13:09;;;;;;;6.25;3.83;;;;;;;19.76;100.00;96162.13;1040789;28;20075;-72
2023/07/10 02:13:40;;;;;;;6.18;3.60;;;;;;;19.72;100.00;96163.06;1042825;28;20025;-73
2023/07/10 02:14:10;;;;;;;5.32;3.42;;;;;;;19.76;100.00;96169.34;1037192;28;20120;-73
2023/07/10 02:14:40;;;;;;;7.75;3.72;;;;;;;19.70;100.00;96158.03;1039373;28;20454;-73
2023/07/10 02:15:11;;;;;;;5.68;3.75;;;;;;;19.73;100.00;96167.28;1038644;28;20017;-73
2023/07/10 02:15:41;;;;;;;7.20;3.40;;;;;;;19.76;100.00;96166.69;1034531;28;20025;-73
2023/07/10 02:16:12;;;;;;;5.05;3.70;;;;;;;19.76;100.00;96172.78;1030403;28;20027;-73
2023/07/10 02:16:43;;;;;;;6.05;3.75;;;;;;;19.77;100.00;96171.69;1034164;28;20484;-73
2023/07/10 02:17:13;;;;;;;5.57;3.70;;;;;;;19.77;100.00;96169.00;1038797;28;20021;-72
2023/07/10 02:17:43;;;;;;;6.70;3.88;;;;;;;19.78;100.00;96165.28;1044131;28;20449;-73
2023/07/10 02:18:14;;;;;;;9.23;3.72;;;;;;;19.79;100.00;96168.72;1038503;28;20022;-73
2023/07/10 02:18:44;;;;;;;11.60;3.83;;;;;;;19.80;100.00;96164.94;1040799;28;20022;-72
2023/07/10 02:19:15;;;;;;;7.07;3.92;;;;;;;19.80;100.00;96164.94;1038057;28;20017;-73
2023/07/10 02:19:45;;;;;;;6.47;3.83;;;;;;;19.80;100.00;96159.63;1037798;28;20021;-72
2023/07/10 02:20:16;;;;;;;7.88;3.53;;;;;;;19.79;100.00;96168.72;1041922;28;20025;-73
2023/07/10 02:20:50;;;;;;;5.75;3.83;;;;;;;19.80;100.00;96169.50;1043029;28;20017;-73
2023/07/10 02:21:21;;;;;;;7.32;3.50;;;;;;;19.76;100.00;96159.47;1042295;28;20025;-73
2023/07/10 02:21:52;;;;;;;5.00;3.50;;;;;;;19.81;100.00;96163.06;1039841;28;20022;-73
2023/07/10 02:22:25;;;;;;;6.63;3.78;;;;;;;19.77;100.00;96154.91;1043145;28;20025;-73
2023/07/10 02:22:55;;;;;;;6.55;3.45;;;;;;;19.78;100.00;96162.63;1033789;28;20026;-73
2023/07/10 02:23:26;;;;;;;20.27;5.65;;;;;;;19.80;100.00;96170.28;1031219;28;20057;-73
2023/07/10 02:23:56;;;;;;;4.60;3.35;;;;;;;19.81;100.00;96161.19;1031027;28;20090;-73
2023/07/10 02:24:27;;;;;;;6.95;3.65;;;;;;;19.80;100.00;96164.94;1030753;28;20018;-72
2023/07/10 02:24:57;;;;;;;6.68;3.60;;;;;;;19.80;100.00;96153.53;1043071;28;20561;-73
2023/07/10 02:25:30;;;;;;;7.30;4.00;;;;;;;19.76;100.00;96154.13;1038432;28;20474;-73
2023/07/10 02:26:02;;;;;;;6.72;3.80;;;;;;;19.76;100.00;96148.03;1042940;28;20049;-72
2023/07/10 02:26:32;;;;;;;5.72;3.75;;;;;;;19.81;100.00;96161.19;1038757;28;20036;-73
2023/07/10 02:27:03;;;;;;;5.75;3.95;;;;;;;19.79;100.00;96158.06;1039405;28;20627;-72
2023/07/10 02:27:36;;;;;;;6.53;4.00;;;;;;;19.79;100.00;96158.06;1041904;28;20108;-72
2023/07/10 02:28:07;;;;;;;6.35;3.80;;;;;;;19.80;100.00;96164.16;1035713;28;20376;-72
2023/07/10 02:28:37;;;;;;;8.32;4.68;;;;;;;19.78;100.00;96156.47;1042878;28;20668;-71
2023/07/10 02:29:08;;;;;;;10.25;3.40;;;;;;;19.77;100.00;96160.25;1046585;28;20025;-73
2023/07/10 02:29:38;;;;;;;5.70;3.92;;;;;;;19.73;100.00;96159.31;1047049;28;20024;-71
2023/07/10 02:30:09;;;;;;;6.15;3.97;;;;;;;19.72;100.00;96152.41;1038674;28;20530;-72
2023/07/10 02:30:39;;;;;;;5.47;3.67;;;;;;;19.70;100.00;96159.91;1038660;28;20163;-73